Airfield :
LOGIN :

Register | Disclaimer

   EN    FR    IT 

 










Legend :    VFR   Marginal VFR   IFR   Intensive IFR   Very Intensive IFR
Visi :
Ceiling :
>= 8 km
>= 3000ft
5 to 8 km
1000 to 3000 ft
1500m to 5 km
500 to 1000 ft
800 to 1500m
200 to 500 ft
< 800m
< 200 ft
Symbols :   Thunderstorms  Fog  Heavy snow  Heavy precipitations  Wind > 20 kt
SIGMETs :     Misc.  Thunderstorms  Icing  Turbulence  Mountain Waves  Volcanic Ashes






- Airport Elevation : 2026 ft
- IATA code : TOJ


LETO - Madrid Torrejon

CURRENT METAR :
  • 100000Z VRB02KT 9999 -RA BKN027 BKN033 12/11 Q1021 NOSIG

EXPIRED METARs :
  • 092300Z VRB01KT 8000 -RA BKN027 12/11 Q1021 NOSIG
  • 092200Z 00000KT 8000 -RA BKN009 12/12 Q1021 NOSIG

TAF TAF LETO
Valid from the 10 at 00:00 until the 11 at 00:00 UTC


092300Z 1000/1024 VRB05KT 9999 SCT030 BKN045 TX16/1015Z TN10/1006Z
PROB30
TEMPO 1012/1018 14008KT
PROB40
TEMPO 1000/1009 3000 RA SHRA SCT020 SCT030TCU
PROB30
TEMPO 1009/1015 3000 DZRA BKN020



MET'MAP, your aeronautical weather chart ! - Copyright ORBIFLY December 2007 - Disclaimer

ORBIFLY MET'MAP TEAM :

Programming & Development : Alexandra Zaïnal
Concept & original design : Baudouin d'Aumeries
Assistance for programming : Marc-Olivier Méhu
Technical & hardware support : Manuel Goepfert

Contact : metmap@orbifly.com




SOURCES & CREDITS :

   NOAA